ADDS METAR Data INFO
IDs: Format: Raw Decoded Include TAF

Data at: 1059 UTC 24 Nov 2017

KWRL 241053Z AUTO 23009KT 10SM CLR 08/02 A2968 RMK AO2 SLP046 T00780017
KWRL 240953Z AUTO 23010KT 10SM CLR 07/01 A2970 RMK AO2 SLP050 T00670011
KWRL 240853Z AUTO 22013KT 10SM CLR 09/02 A2969 RMK AO2 SLP042 T00940017 56014
KWRL 240753Z AUTO 23015KT 10SM CLR 10/02 A2970 RMK AO2 SLP047 T01000022
KWRL 240653Z AUTO 21007KT 10SM CLR 07/01 A2971 RMK AO2 SLP059 T00720011 401281022
KWRL 240553Z AUTO 20003KT 10SM CLR 04/01 A2974 RMK AO2 SLP081 T00390006 10072 20006 58016
KWRL 240453Z AUTO 21004KT 10SM CLR 04/01 A2976 RMK AO2 SLP093 T00390006
KWRL 240353Z AUTO 21010KT 10SM CLR 02/01 A2979 RMK AO2 SLP109 T00220011
KWRL 240253Z AUTO 23007KT 170V270 10SM CLR 03/02 A2980 RMK AO2 SLP110 T00330017 58014
KWRL 240153Z AUTO 15009KT 10SM CLR 07/03 A2983 RMK AO2 SLP116 T00670033
KWRL 240053Z AUTO 19006KT 10SM CLR 07/04 A2985 RMK AO2 SLP122 T00670039
KWRL 232353Z AUTO 20006KT 10SM CLR 07/03 A2984 RMK AO2 SLP122 T00670033 10128 20050 56013
KWRL 232253Z AUTO 19005KT 10SM CLR 08/04 A2985 RMK AO2 SLP122 T00830044
KWRL 232153Z AUTO 00000KT 10SM CLR 11/05 A2986 RMK AO2 SLP120 T01110050
KWRL 232053Z AUTO 01007KT 10SM CLR 12/05 A2989 RMK AO2 SLP127 T01220050 56032
KWRL 231953Z AUTO 10006KT 10SM CLR 10/04 A2991 RMK AO2 SLP137 T01000039
KWRL 231853Z AUTO 10004KT 10SM CLR 08/03 A2995 RMK AO2 SLP157 T00830033
KWRL 231753Z AUTO VRB03KT 10SM CLR 05/03 A2999 RMK AO2 SLP174 T00500028 10050 21011 58015
KWRL 231653Z AUTO VRB03KT 10SM CLR 02/02 A3002 RMK AO2 SLP188 T00220017
KWRL 231553Z AUTO 00000KT 10SM CLR 00/00 A3004 RMK AO2 SLP199 T00000000
KWRL 231453Z AUTO 14005KT 10SM CLR 00/M01 A3004 RMK AO2 SLP202 T00001006 58021
KWRL 231353Z AUTO 17006KT 10SM CLR 00/00 A3008 RMK AO2 SLP215 T00000000
KWRL 231253Z AUTO 21004KT 10SM CLR M01/M01 A3010 RMK AO2 SLP223 T10061006
KWRL 231153Z AUTO 08003KT 10SM CLR M01/M02 A3011 RMK AO2 SLP223 T10111017 10006 21022 58015
KWRL 231053Z AUTO 17003KT 10SM CLR M01/M01 A3013 RMK AO2 SLP228 T10111011
KWRL 230953Z AUTO 22006KT 10SM CLR M01/M01 A3016 RMK AO2 SLP228 T10111011
KWRL 230853Z AUTO 22004KT 10SM CLR M01/M01 A3016 RMK AO2 SLP230 T10111011 58012
KWRL 230753Z AUTO 20005KT 10SM CLR 00/00 A3018 RMK AO2 SLP235 T00000000
KWRL 230653Z AUTO 17003KT 10SM CLR M01/M02 A3020 RMK AO2 SLP247 T10111017 400941039
KWRL 230553Z AUTO 00000KT 10SM CLR 00/00 A3020 RMK AO2 SLP250 T00000000 10033 21011 58005
KWRL 230453Z AUTO 11004KT 10SM CLR 01/00 A3022 RMK AO2 SLP257 T00060000
KWRL 230353Z AUTO 20007KT 10SM CLR 01/00 A3023 RMK AO2 SLP265 T00110000
KWRL 230253Z AUTO 00000KT 10SM CLR 00/M01 A3022 RMK AO2 SLP264 T00001006 51006
KWRL 230153Z AUTO 00000KT 10SM CLR 01/00 A3022 RMK AO2 SLP266 T00060000
KWRL 230053Z AUTO 20003KT 10SM CLR 01/00 A3020 RMK AO2 SLP258 T00110000
KWRL 222353Z AUTO 00000KT 10SM CLR 03/01 A3020 RMK AO2 SLP253 T00330006 10094 20028 53002